Date,TemperatureHighF,TemperatureAvgF,TemperatureLowF,DewpointHighF,DewpointAvgF,DewpointLowF,HumidityHigh,HumidityAvg,HumidityLow,PressureMaxIn,PressureMinIn,WindSpeedMaxMPH,WindSpeedAvgMPH,GustSpeedMaxMPH,PrecipitationSumIn
2013-1-10,65.3,54.4,45.7,47.2,42.0,34.0,90,65,43,30.52,30.39,9,2,14,0.00
2013-1-11,51.6,47.6,41.9,49.4,41.5,28.9,94,81,48,30.42,30.13,7,1,11,0.25
2013-1-12,72.7,58.0,49.1,62.9,54.4,47.7,95,88,65,30.15,30.08,6,0,8,0.01
2013-1-13,76.1,64.5,55.2,64.4,56.8,53.5,95,78,53,30.12,30.03,13,2,20,0.00
2013-1-14,69.8,65.1,61.3,60.8,57.9,54.4,87,78,70,30.14,30.06,7,2,11,0.00
2013-1-15,64.2,46.3,44.2,59.0,43.6,41.9,94,90,82,30.22,30.03,10,2,19,0.01
2013-1-16,49.8,45.9,43.3,47.9,44.3,41.7,95,94,93,30.06,29.95,7,1,13,0.12
2013-1-17,50.9,46.4,33.4,49.0,43.9,29.7,93,91,84,30.13,29.88,12,2,24,0.98
2013-1-18,47.7,36.6,27.5,31.0,25.6,15.4,91,68,29,30.52,30.13,8,2,13,0.19
2013-1-19,54.9,38.8,25.5,31.6,23.4,16.7,83,59,23,30.49,30.13,7,1,11,0.00
2013-1-20,64.8,50.3,37.0,34.6,29.0,24.9,74,46,23,30.14,29.95,14,3,21,0.00
2013-1-21,60.3,45.4,28.6,34.8,23.4,6.8,83,48,20,30.07,29.84,9,2,20,0.00
2013-1-22,44.2,34.0,24.3,11.6,-0.1,-8.8,33,23,18,30.27,29.93,14,3,21,0.00
2013-1-23,41.0,28.7,17.2,12.3,5.1,-7.6,63,39,18,30.36,30.03,11,2,15,0.00
2013-1-24,36.5,31.9,23.9,21.0,7.5,-6.6,61,37,18,30.50,29.93,19,3,31,0.01
2013-1-25,27.0,24.3,20.5,21.6,7.5,-8.6,80,52,22,30.51,30.08,9,1,11,0.00
2013-1-26,39.2,30.5,26.4,30.9,24.6,21.0,87,79,59,30.39,30.06,6,0,8,0.05
2013-1-27,43.3,31.4,23.0,26.3,22.1,18.4,85,70,46,30.58,30.38,11,1,14,0.00
2013-1-28,51.8,42.5,30.6,45.2,33.3,23.8,82,70,52,30.49,30.21,9,2,14,0.02
2013-1-29,74.3,59.8,48.0,55.1,49.7,43.6,86,71,48,30.22,30.05,11,3,14,0.00
2013-1-30,72.0,67.5,61.0,62.2,59.3,54.8,86,75,65,30.05,29.36,24,10,40,0.50
2013-1-31,63.7,47.3,32.0,58.4,25.9,11.6,84,46,21,29.99,29.42,20,7,34,0.45
2013-2-1,41.4,35.6,26.8,25.0,6.8,-7.4,62,32,18,30.37,29.86,21,6,36,0.43
2013-2-2,45.1,33.7,19.0,33.9,4.7,-7.0,73,31,19,30.38,30.01,12,3,19,0.00
2013-2-3,49.3,42.0,34.3,34.1,26.1,18.2,82,55,34,30.00,29.83,13,3,17,0.00
2013-2-4,48.6,38.8,25.7,24.6,17.9,9.3,73,45,23,30.12,29.96,9,2,17,0.00
2013-2-5,62.6,47.6,37.8,32.9,28.2,23.8,75,49,23,29.99,29.85,8,2,15,0.00
2013-2-6,63.3,46.6,30.7,36.0,25.4,15.8,83,50,16,30.27,29.95,11,2,17,0.00
2013-2-7,48.6,42.4,36.7,40.4,35.2,30.5,90,76,60,30.31,29.96,11,3,17,0.38
2013-2-8,55.2,46.0,39.2,42.6,37.4,25.5,91,74,44,30.02,29.79,16,6,31,0.61
2013-2-9,53.8,40.9,28.9,25.7,18.3,7.9,72,44,18,30.34,30.02,14,3,23,0.00
2013-2-10,53.4,39.8,25.7,39.4,18.7,11.8,79,47,19,30.47,30.19,9,2,15,0.02
2013-2-11,63.5,56.9,45.5,57.5,51.8,39.4,93,83,77,30.19,29.89,12,4,18,0.05
2013-2-12,61.3,54.1,47.8,52.6,31.4,16.2,83,47,19,30.06,29.88,11,2,17,0.00
2013-2-13,48.7,45.9,43.2,44.9,41.6,33.7,92,85,61,29.94,29.60,9,2,17,0.22
2013-2-14,52.0,41.9,30.4,35.7,29.6,25.6,85,64,39,30.05,29.81,9,1,14,0.00
2013-2-15,62.6,44.9,28.6,37.3,28.7,21.7,85,59,22,30.07,29.90,9,1,14,0.00
2013-2-16,47.3,36.9,30.6,33.5,30.0,24.0,87,77,57,29.95,29.80,9,2,15,0.44
2013-2-17,37.4,30.5,23.2,25.8,6.0,-3.7,81,39,18,30.26,29.89,21,4,28,0.15
2013-2-18,51.4,35.6,17.6,23.9,12.5,4.5,73,43,18,30.40,30.24,9,2,14,0.00
2013-2-19,53.1,44.6,36.1,48.6,36.7,23.4,90,74,53,30.23,29.83,15,4,25,0.11
2013-2-20,53.8,41.4,27.7,36.9,16.3,4.9,91,41,17,30.12,29.93,11,3,18,0.00
2013-2-21,55.6,41.4,24.6,21.0,13.7,6.8,69,35,17,30.24,30.08,9,2,13,0.00
2013-2-22,42.6,35.9,32.0,31.9,27.5,17.1,85,73,36,30.34,30.11,9,2,12,0.37
2013-2-23,43.3,39.7,35.6,40.9,36.8,31.3,92,89,84,30.11,29.79,7,1,13,0.74
2013-2-24,63.3,49.8,37.4,44.3,35.4,19.5,92,64,20,30.02,29.77,14,2,17,0.07
2013-2-25,42.4,37.8,33.3,30.9,21.2,15.5,77,51,41,30.21,30.02,10,1,15,0.00
2013-2-26,57.6,45.4,35.4,55.3,39.1,20.6,94,80,52,30.12,29.53,21,3,27,0.99
2013-2-27,60.4,50.1,43.3,44.3,37.4,31.1,91,65,34,29.76,29.59,11,4,16,0.00
2013-2-28,49.3,42.1,33.6,36.7,28.4,19.7,86,60,32,29.83,29.67,17,2,24,0.00
2013-3-1,49.8,40.8,29.3,27.6,23.9,20.8,74,52,33,29.89,29.81,11,2,17,0.00
2013-3-2,48.7,37.5,25.7,28.3,20.5,13.9,79,52,32,29.90,29.78,13,2,16,0.00
2013-3-3,46.9,36.0,27.1,18.0,13.6,10.0,56,41,23,29.95,29.81,13,4,21,0.01
2013-3-4,51.4,36.5,25.9,17.7,10.0,2.7,54,35,18,30.08,29.95,13,3,22,0.00
2013-3-5,50.5,42.0,33.4,41.9,31.4,16.5,89,69,31,30.06,29.55,11,2,18,0.35
2013-3-6,46.4,42.0,36.9,42.0,30.0,22.4,91,64,43,30.00,29.47,25,8,42,0.99
2013-3-7,50.5,42.3,30.7,27.7,25.1,20.1,74,51,36,30.21,29.99,14,4,21,0.00
2013-3-8,55.8,44.2,32.4,25.3,19.8,13.3,62,40,20,30.26,30.11,16,5,28,0.01
2013-3-9,63.7,47.7,34.2,31.2,24.2,18.5,74,43,18,30.32,30.20,9,2,16,0.00
2013-3-10,67.5,50.1,30.9,35.3,22.6,13.9,82,43,13,30.31,30.18,11,2,14,0.00
2013-3-11,69.3,55.9,41.5,52.3,42.2,23.0,80,61,33,30.22,29.92,17,5,23,0.00
2013-3-12,70.3,62.2,51.4,60.2,52.2,30.6,93,72,41,29.92,29.72,15,6,28,0.44
2013-3-13,57.6,47.6,34.7,33.9,23.5,12.4,81,42,19,30.11,29.91,17,4,25,0.02
2013-3-14,54.3,40.8,28.8,21.1,14.1,9.9,58,35,17,30.22,30.07,14,4,27,0.01
2013-3-15,62.4,47.1,27.1,33.5,23.7,13.6,74,43,23,30.16,29.87,11,3,19,0.00
2013-3-16,78.8,64.4,53.1,49.9,41.7,32.9,59,45,29,29.88,29.61,14,4,22,0.00
2013-3-17,63.5,51.8,40.1,51.5,44.1,36.6,93,75,59,30.16,29.80,13,4,20,0.00
2013-3-18,43.0,40.1,37.6,41.1,38.7,36.2,98,95,92,30.18,29.84,11,3,14,0.33
2013-3-19,68.0,52.0,39.9,45.3,30.7,9.9,99,58,13,29.99,29.79,17,4,29,0.07
2013-3-20,55.8,47.3,37.2,25.8,11.7,3.4,62,25,17,30.09,29.77,10,3,17,0.00
2013-3-21,45.0,39.7,32.0,31.6,14.9,-0.4,70,39,20,29.95,29.70,17,5,24,0.00
2013-3-22,52.5,37.7,22.8,21.6,10.2,1.9,59,34,18,30.06,29.93,12,3,18,0.00
2013-3-23,56.8,44.8,35.8,32.1,23.8,12.8,74,46,21,30.03,29.88,5,1,8,0.00
2013-3-24,42.8,38.2,34.5,37.7,33.8,27.8,95,84,62,29.92,29.55,13,3,18,0.63
2013-3-25,48.6,40.7,35.1,36.7,28.0,17.9,93,65,32,29.78,29.53,21,4,30,0.01
2013-3-26,49.8,42.6,33.6,27.2,24.7,21.7,65,49,38,30.08,29.79,9,1,15,0.00
2013-3-27,51.8,42.8,34.3,26.6,20.7,13.1,65,44,22,30.20,30.08,5,0,19,0.07
2013-3-28,56.5,43.8,28.9,26.5,20.5,13.4,74,43,19,30.27,30.11,14,0,24,0.02
2013-3-29,60.1,45.3,28.0,32.5,23.4,18.0,80,48,20,30.31,30.15,0,0,0,0.00
2013-3-30,67.3,53.2,38.5,43.0,32.8,18.5,82,51,19,30.22,30.05,0,0,0,0.00
2013-3-31,68.7,57.4,47.8,56.1,49.9,41.8,96,77,61,30.08,29.78,10,1,20,0.58
2013-4-1,73.0,61.6,53.2,54.6,44.5,31.5,96,61,22,29.95,29.77,15,2,22,0.02
2013-4-2,61.0,50.2,36.9,34.7,25.2,16.8,74,41,18,30.14,29.95,14,1,20,0.00
2013-4-3,61.9,50.1,40.6,30.4,19.0,10.9,55,31,17,30.28,30.11,10,0,14,0.00
2013-4-4,48.4,42.6,39.2,39.0,31.5,20.4,96,67,38,30.34,29.90,9,2,17,0.69
2013-4-5,64.4,48.6,39.4,46.4,42.2,38.3,98,81,47,29.99,29.84,8,2,15,0.04
2013-4-6,65.7,54.1,40.5,41.9,28.5,14.6,94,43,19,30.26,29.99,0,0,2,0.00
2013-4-7,72.5,56.6,36.7,46.6,37.0,31.1,85,52,28,30.27,30.08,0,0,1,0.00
2013-4-8,79.3,67.5,56.1,55.2,51.6,46.6,87,59,36,30.16,30.01,11,1,19,0.00
2013-4-9,85.6,73.1,60.3,58.5,55.5,51.3,87,57,33,30.15,30.02,9,2,17,0.00
2013-4-10,88.2,75.9,64.4,61.1,57.7,54.5,81,56,32,30.07,29.91,8,1,12,0.00
2013-4-11,82.6,72.8,63.3,66.0,59.2,54.2,86,64,40,29.97,29.76,9,0,14,0.00
2013-4-12,82.6,73.2,66.9,67.5,62.1,45.4,91,70,41,29.79,29.57,14,1,22,0.21
2013-4-13,76.3,64.7,54.0,45.4,38.5,29.9,67,40,21,29.97,29.73,8,0,15,0.00
2013-4-14,81.1,65.5,44.8,51.7,40.5,25.8,90,48,14,30.08,29.97,11,2,15,0.00
2013-4-15,71.6,65.8,59.5,58.1,54.4,49.6,85,67,54,30.18,29.99,11,2,19,0.14
2013-4-16,77.4,65.5,58.1,60.5,57.2,54.8,95,77,47,30.29,30.16,8,1,17,0.19
2013-4-17,83.5,70.9,57.4,63.2,59.7,55.1,93,70,46,30.21,30.07,9,2,13,0.01
2013-4-18,79.2,70.7,61.0,62.5,58.5,54.0,88,67,43,30.17,30.01,12,2,20,0.06
2013-4-19,83.1,73.5,66.7,66.9,64.3,60.7,91,74,52,30.03,29.69,17,3,25,0.09
2013-4-26,74.3,66.7,52.5,45.7,34.5,24.4,74,34,16,30.43,29.64,1,0,2,1.20
2013-4-27,75.2,63.5,51.6,50.0,43.3,35.3,79,51,25,30.39,30.25,0,0,4,0.00
2013-4-28,63.3,58.9,54.7,54.7,48.7,41.4,94,70,53,30.26,30.11,0,0,1,0.72
2013-4-29,74.5,63.0,54.5,63.8,58.5,53.0,97,86,61,30.11,29.96,0,0,0,0.81
2013-4-30,68.2,61.5,57.2,60.0,57.6,54.0,96,87,72,30.18,30.00,0,0,4,0.01
2013-5-1,61.9,59.2,57.9,57.5,55.5,54.4,92,88,82,30.33,30.16,0,0,1,0.00
2013-5-2,64.0,59.3,55.4,56.1,54.6,50.3,92,85,75,30.34,30.26,0,0,0,0.00
2013-5-3,70.9,58.6,48.6,54.2,48.3,41.8,93,71,43,30.28,30.16,0,0,1,0.00
2013-5-4,77.4,52.9,49.3,52.3,46.0,42.9,87,78,41,30.42,30.11,13,0,19,0.12
2013-5-11,81.5,79.9,75.4,62.5,59.7,58.8,62,50,46,30.11,29.90,13,9,21,0.17
2013-5-12,74.3,66.6,56.7,63.5,47.9,34.3,91,55,26,30.03,29.80,12,3,17,0.01
2013-5-13,67.3,57.5,45.5,42.8,34.1,25.5,82,44,23,30.19,30.03,13,2,18,0.00
2013-5-14,70.7,56.9,39.4,46.2,37.5,28.8,91,54,22,30.27,30.08,8,1,13,0.00
2013-5-15,88.9,71.5,54.9,60.6,53.4,42.6,72,54,36,30.09,29.89,9,2,14,0.00
2013-5-16,84.7,79.1,67.1,62.1,58.3,54.2,77,51,39,30.00,29.84,6,3,12,0.00
2013-5-17,89.4,76.5,62.8,66.3,60.2,56.0,89,61,34,30.08,29.94,8,1,14,0.18
2013-5-18,81.7,70.8,63.7,68.3,64.7,60.5,93,82,58,30.16,30.06,6,1,12,0.21
2013-5-19,77.9,70.3,65.7,69.3,65.7,63.3,94,86,65,30.15,30.05,11,2,19,0.71
2013-5-20,75.4,70.5,67.6,69.9,67.1,65.5,93,89,81,30.11,30.01,5,1,10,0.45
2013-5-21,86.4,74.2,68.9,69.7,67.3,65.3,91,80,50,30.05,29.94,8,2,14,0.00
2013-5-22,84.7,74.9,69.4,69.2,66.0,63.1,89,75,50,30.03,29.90,11,3,18,0.01
2013-5-23,82.9,73.9,69.3,67.4,66.0,63.0,90,77,53,29.95,29.81,11,3,14,0.00
2013-5-24,70.9,65.2,52.5,66.4,51.0,32.2,92,64,29,30.18,29.80,15,4,30,0.06
2013-5-25,74.8,58.6,42.3,48.5,38.4,26.5,90,53,19,30.27,30.11,10,2,15,0.00
2013-5-26,75.7,61.7,48.7,51.0,43.7,36.8,84,55,28,30.28,30.16,7,1,13,0.00
2013-5-27,81.5,66.6,50.0,55.3,50.0,45.4,91,60,29,30.28,30.14,8,2,14,0.00
2013-5-28,84.2,73.7,61.2,64.3,60.2,53.2,86,64,48,30.25,30.14,10,3,14,0.00
2013-5-29,85.8,77.6,70.3,64.0,61.5,58.6,79,58,44,30.18,29.89,11,3,14,0.00
2013-5-30,87.6,75.9,62.8,66.6,62.3,58.9,89,65,39,30.01,29.90,8,2,11,0.00
2013-5-31,88.2,78.0,66.6,68.5,64.5,59.6,88,65,41,29.96,29.83,8,2,13,0.00
2013-6-1,88.5,78.5,68.0,67.6,64.4,60.1,89,64,41,29.88,29.75,9,3,14,0.00
2013-6-2,86.5,77.8,68.9,67.7,64.9,62.8,86,66,48,29.79,29.63,13,4,21,0.00
2013-6-3,83.3,74.2,67.5,71.4,68.3,64.2,92,82,57,29.70,29.56,8,2,15,0.59
2013-6-4,81.5,71.5,65.3,67.4,62.8,59.7,93,76,51,29.84,29.66,4,1,9,0.00
2013-6-5,82.6,73.3,64.0,62.7,57.6,51.0,86,60,38,29.88,29.75,12,3,14,0.00
2013-6-6,75.9,71.1,66.7,70.6,64.8,56.4,91,81,60,29.96,29.67,10,4,21,0.38
2013-6-7,77.4,71.2,69.1,73.6,68.4,66.7,93,91,87,29.88,29.50,11,2,22,2.94
2013-6-8,84.6,74.0,66.9,68.8,66.6,63.1,93,79,52,30.12,29.83,6,1,17,0.06
2013-6-9,88.3,77.1,66.9,71.3,67.5,64.2,92,75,48,30.18,30.07,7,2,13,0.08
2013-6-10,83.1,75.3,71.6,74.0,69.8,66.9,89,83,68,30.13,29.92,10,4,17,0.54
2013-6-11,86.0,77.1,70.5,67.9,64.4,60.1,85,67,43,29.98,29.91,8,3,20,0.00
2013-6-12,91.0,78.5,64.8,73.2,66.8,61.5,90,69,49,30.00,29.88,8,1,11,0.00
2013-6-13,95.5,80.7,69.1,74.1,68.6,59.1,85,69,39,29.89,29.61,17,2,36,0.14
2013-6-14,81.0,72.0,61.2,64.3,56.8,52.8,83,61,38,30.03,29.75,11,2,19,0.00
2013-6-15,87.1,72.0,57.9,67.9,58.4,54.7,89,65,39,30.27,30.03,8,1,14,0.14
2013-6-16,87.8,76.8,65.5,66.2,60.8,51.9,80,58,46,30.33,30.00,11,2,17,0.00
2013-6-17,87.6,77.9,71.8,69.7,65.7,61.8,81,66,50,30.05,29.93,7,2,12,0.00
2013-6-18,83.8,74.9,69.8,70.1,67.8,65.5,89,79,63,29.98,29.75,14,2,21,0.47
2013-6-19,81.9,73.7,65.8,67.2,64.2,61.6,92,74,54,30.12,29.88,6,2,11,0.00
2013-6-20,84.0,73.7,64.0,63.2,59.5,50.9,89,63,43,30.25,30.13,8,2,11,0.00
2013-6-21,85.3,74.1,58.8,64.7,56.5,48.7,82,56,32,30.26,30.19,7,2,14,0.00
2013-6-22,82.4,73.7,69.6,71.4,66.5,64.4,87,78,62,30.21,30.12,11,2,17,0.05
2013-6-23,86.0,76.6,68.5,71.1,68.0,65.4,90,76,54,30.22,30.12,7,2,12,0.00
2013-6-24,87.6,78.6,72.3,72.8,69.6,67.3,87,75,56,30.21,30.09,10,2,15,0.00
2013-6-25,90.7,78.0,70.3,72.4,68.1,65.3,86,72,50,30.14,30.01,11,2,18,0.00
2013-6-26,90.5,77.8,69.3,71.7,68.0,62.3,90,73,47,30.04,29.89,14,3,27,0.17
2013-6-27,89.4,77.9,68.2,73.3,69.2,64.5,90,76,52,29.92,29.71,9,3,14,0.01
2013-6-28,91.9,79.4,71.1,71.6,69.0,65.0,88,73,45,29.76,29.58,10,3,24,0.78
2013-6-29,87.1,76.4,68.9,71.1,68.8,66.2,92,79,54,29.75,29.61,5,2,11,0.43
2013-6-30,86.0,76.4,70.7,72.0,69.4,64.6,89,79,60,29.88,29.72,13,3,23,0.48
2013-7-1,83.3,75.9,70.2,71.5,69.2,66.5,89,80,65,30.00,29.84,10,3,20,0.58
2013-7-2,77.7,74.1,71.8,70.4,69.3,66.7,89,85,76,30.19,29.99,8,3,13,0.52
2013-7-3,85.8,78.0,73.6,72.3,70.7,68.2,90,79,59,30.26,30.15,11,3,16,0.00
2013-7-4,89.2,80.4,73.8,70.7,68.4,62.9,86,69,42,30.28,30.18,14,4,19,0.00
2013-7-5,90.0,80.7,72.9,71.1,68.6,65.7,86,68,45,30.28,30.16,12,3,15,0.00
2013-7-6,88.2,80.2,73.2,70.8,68.5,65.4,84,68,50,30.26,30.12,8,2,18,0.00
2013-7-7,89.1,79.6,70.0,70.5,67.8,64.1,84,68,51,30.19,30.06,8,2,14,0.00
2013-7-8,91.4,79.8,72.0,70.8,68.5,64.0,82,70,42,30.17,30.09,9,2,15,0.04
2013-7-9,89.1,77.8,71.6,73.2,68.8,64.9,86,74,54,30.17,30.07,8,2,18,0.00
2013-7-10,87.6,79.2,73.8,71.9,69.3,65.0,83,72,56,30.11,29.96,17,2,18,0.00
2013-7-11,83.8,76.3,72.5,72.2,68.8,66.2,85,78,63,29.99,29.88,7,2,11,0.57
2013-7-12,78.3,73.8,71.4,69.3,67.4,65.1,88,81,71,30.04,29.87,8,1,11,0.05
2013-7-13,80.1,74.4,70.5,72.4,68.4,65.0,85,82,72,30.19,30.02,8,2,14,0.90
2013-7-14,88.3,79.2,70.9,71.3,68.1,64.0,87,70,47,30.31,30.18,9,3,15,0.01
2013-7-15,91.8,80.6,70.3,73.0,67.2,64.5,85,66,43,30.33,30.25,6,1,8,0.00
2013-7-16,96.4,81.9,69.1,71.9,67.3,64.1,84,64,40,30.28,30.17,8,1,9,0.00
2013-7-17,95.9,84.4,74.5,74.2,69.4,66.0,83,63,41,30.23,30.10,7,1,11,0.00
2013-7-18,95.5,83.4,74.8,74.6,70.7,68.8,83,67,43,30.15,30.03,7,1,11,0.04
2013-7-19,90.7,82.5,75.9,72.6,69.8,67.1,82,67,49,30.12,29.99,10,2,17,0.00
2013-7-20,89.6,80.9,75.7,71.6,69.3,67.8,77,68,52,30.11,29.99,8,3,14,0.00
2013-7-21,88.3,78.2,74.1,71.0,68.7,66.7,84,73,54,30.08,29.97,7,2,18,1.17
2013-7-22,89.6,79.2,72.0,71.6,69.4,67.6,87,73,53,30.04,29.89,8,2,14,0.00
2013-7-23,90.3,81.4,75.6,69.4,68.3,66.7,78,65,47,29.93,29.79,8,2,13,0.00
2013-7-24,94.5,81.0,71.4,72.1,67.3,64.8,82,65,42,29.93,29.80,5,1,12,0.00
2013-7-25,81.1,74.7,68.7,67.8,64.6,62.3,80,71,57,30.12,29.89,9,2,16,0.01
2013-7-26,87.1,74.7,62.2,64.6,60.5,56.1,85,64,42,30.18,30.10,6,1,8,0.01
2013-7-27,86.5,75.1,66.9,67.7,64.2,61.3,84,70,44,30.14,30.01,11,2,16,0.09
2013-7-28,88.3,77.5,69.8,69.3,66.7,64.5,86,71,46,30.08,29.99,7,2,11,0.01
2013-7-29,88.2,76.8,70.2,69.3,65.0,62.0,85,69,43,30.22,30.06,8,1,18,0.25
2013-7-30,87.4,76.5,68.7,66.9,62.7,60.1,77,64,41,30.29,30.20,6,1,11,0.00
2013-7-31,83.7,76.6,71.8,70.5,66.8,63.2,83,72,55,30.22,30.08,10,1,17,0.02
2013-8-1,85.5,75.6,70.3,70.2,67.4,64.2,86,76,57,30.10,29.92,5,1,17,0.32
2013-8-2,90.0,78.0,67.5,70.6,66.0,62.1,87,69,43,30.09,29.98,7,1,12,0.40
2013-8-3,90.9,78.0,71.1,72.0,68.7,64.6,86,74,47,30.10,29.97,9,2,17,0.71
2013-8-4,86.4,75.9,67.8,71.1,64.3,58.3,88,70,40,30.10,29.95,9,1,13,0.01
2013-8-5,83.3,74.2,64.6,64.9,60.6,54.1,85,65,40,30.17,30.07,8,1,11,0.00
2013-8-6,82.9,75.0,68.0,66.5,63.2,59.6,83,68,52,30.14,30.06,9,2,11,0.11
2013-8-7,87.1,77.7,69.1,67.9,65.1,63.0,83,66,47,30.18,30.09,8,2,13,0.00
2013-8-8,89.4,80.1,71.1,69.6,67.1,65.1,82,66,47,30.14,30.06,6,1,9,0.00
2013-8-9,91.9,82.2,75.0,71.9,69.7,68.2,81,67,49,30.14,30.05,9,2,15,0.00
2013-8-10,94.5,81.6,74.5,73.3,70.0,66.2,81,69,46,30.18,30.07,10,2,42,0.20
2013-8-11,93.4,81.3,72.0,71.4,68.9,66.5,85,68,45,30.19,30.07,6,1,12,0.00
2013-8-12,94.5,82.6,74.1,73.0,69.1,65.2,85,66,42,30.13,30.00,8,1,13,0.00
2013-8-13,88.7,79.0,71.4,74.7,70.0,65.7,86,74,55,30.06,29.84,13,2,21,0.32
2013-8-14,76.3,72.5,63.0,69.5,61.9,56.0,83,70,57,30.16,29.90,6,2,14,0.00
2013-8-15,79.0,67.3,59.9,57.8,55.3,53.4,79,67,43,30.25,30.14,8,1,11,0.00
2013-8-16,72.3,66.7,60.3,58.6,56.6,54.4,82,70,58,30.25,30.17,4,1,8,0.00
2013-8-17,73.2,68.1,64.0,66.7,61.5,56.7,86,79,75,30.25,30.18,4,1,13,0.17
2013-8-18,81.5,73.4,68.5,67.1,65.0,61.6,90,76,56,30.28,30.18,8,2,14,0.02
2013-8-19,76.5,70.3,66.7,67.6,64.2,61.4,86,81,71,30.28,30.17,8,1,12,0.44
2013-8-20,84.9,75.6,68.0,70.1,66.8,63.7,87,75,55,30.26,30.18,5,1,9,0.00
2013-8-21,88.0,76.7,70.7,70.4,68.3,65.3,85,76,53,30.30,30.18,7,1,11,0.48
2013-8-22,90.9,78.9,69.6,70.4,66.5,62.7,86,68,40,30.22,30.07,6,1,9,0.01
2013-8-23,89.4,77.7,69.4,70.1,65.8,61.5,83,68,45,30.07,30.07,8,2,17,0.00
2013-8-24,84.2,73.9,65.5,61.7,58.4,54.7,79,60,39,30.07,30.07,8,2,14,0.00
2013-8-25,81.5,70.8,61.3,61.0,56.1,52.4,82,62,38,30.07,30.07,7,1,14,0.00
2013-8-26,85.3,69.3,55.2,59.8,54.9,49.8,83,63,33,30.07,30.07,5,1,8,0.00
2013-8-27,91.0,74.9,61.3,68.7,61.5,54.5,79,65,41,30.07,30.07,5,1,8,0.00
2013-8-28,84.0,77.0,70.0,71.3,67.7,63.6,82,73,59,30.07,30.07,4,0,12,0.00
2013-8-29,89.1,80.7,74.1,70.2,67.4,64.9,74,65,48,30.07,30.07,8,2,14,0.00
2013-8-30,89.8,77.0,66.7,65.1,62.6,60.0,83,63,37,30.07,30.07,4,1,8,0.00
2013-8-31,89.6,77.3,66.4,68.1,64.5,60.4,82,66,44,30.07,30.07,8,2,12,0.00
2013-9-1,91.9,80.0,71.4,72.4,67.6,64.8,82,67,47,30.07,30.07,7,2,17,0.44
2013-9-2,88.3,81.3,75.0,71.4,69.6,68.0,82,69,52,30.07,30.07,2,0,4,2.23
2013-9-3,90.0,79.0,72.3,71.6,68.0,64.0,85,71,46,30.07,30.07,8,1,11,0.13
2013-9-4,88.2,77.1,69.1,67.3,64.4,59.5,82,66,45,30.07,30.07,6,1,9,0.00
2013-9-5,89.6,76.0,66.2,66.2,60.9,52.4,84,63,29,30.07,30.07,6,1,11,0.00
2013-9-6,84.7,73.1,64.9,61.8,57.7,53.3,81,60,40,30.07,30.07,8,1,11,0.00
2013-9-7,85.5,71.6,59.4,63.3,58.3,53.5,82,65,42,30.07,30.07,4,1,8,0.00
2013-9-8,90.1,74.6,63.3,66.9,60.6,57.1,82,64,35,30.07,30.07,8,1,8,0.00
2013-9-9,88.9,76.6,65.5,67.0,63.2,60.2,83,65,43,30.07,30.07,9,1,13,0.00
2013-9-10,91.6,78.2,67.3,67.8,64.0,61.6,82,64,38,30.07,30.07,6,1,9,0.00
2013-9-11,90.0,77.1,66.7,66.6,63.7,61.1,82,65,43,30.07,30.07,7,1,9,0.00
2013-9-12,91.0,77.6,70.3,69.5,65.2,61.7,80,67,45,30.07,30.07,7,1,11,0.18
2013-9-13,85.8,75.9,67.1,66.0,60.0,52.2,82,60,38,30.07,30.07,11,2,16,0.00
2013-9-14,77.7,67.4,59.4,53.7,49.8,45.2,76,54,38,30.07,30.07,8,2,16,0.00
2013-9-15,81.7,67.4,53.8,59.2,53.5,47.8,82,63,40,30.07,30.07,6,1,9,0.00
2013-9-16,87.1,74.5,64.4,67.0,60.5,55.4,82,64,38,30.07,30.07,8,2,15,0.00
2013-9-17,78.1,68.1,60.1,55.6,51.4,47.6,72,56,37,30.07,30.07,9,2,17,0.00
2013-9-18,75.0,62.2,52.0,53.7,48.9,45.7,80,64,38,30.07,30.07,6,1,10,0.00
2013-9-19,77.7,65.5,53.6,57.8,53.6,47.9,83,67,45,30.07,30.07,4,1,7,0.00
2013-9-20,70.3,66.5,62.4,61.3,59.1,56.4,83,77,70,30.07,30.07,7,1,10,0.21
2013-9-21,77.4,71.1,65.8,66.2,63.6,57.7,84,77,59,30.07,30.07,7,2,14,0.61
2013-9-22,78.8,69.0,60.4,62.8,57.6,52.5,86,69,43,30.07,30.07,11,2,17,0.45
2013-9-23,74.8,63.6,55.2,54.2,50.6,46.7,82,64,43,30.07,30.07,5,1,11,0.00
2013-9-24,76.6,62.9,53.2,57.4,52.6,47.9,84,71,47,30.07,30.07,5,1,8,0.00
2013-9-25,75.7,63.7,52.5,58.5,54.0,47.8,84,72,48,30.07,30.07,6,1,9,0.00
2013-9-26,78.8,67.6,58.8,57.9,54.3,50.2,80,64,39,30.07,30.07,6,1,12,0.00
2013-9-27,76.3,64.2,55.9,57.5,52.9,50.2,83,68,45,30.07,30.07,9,1,11,0.00
2013-9-28,75.0,63.2,53.8,54.4,51.1,47.8,83,66,46,30.07,30.07,8,1,14,0.00
2013-9-29,77.0,62.7,52.7,54.8,50.8,47.7,84,67,41,30.07,30.07,8,1,14,0.00
2013-9-30,78.3,62.6,51.4,57.2,51.4,46.5,84,69,40,30.07,30.07,5,1,8,0.00
2013-10-1,84.4,65.7,51.1,62.6,54.2,46.4,84,69,40,30.07,30.07,6,1,9,0.00
2013-10-2,86.5,69.6,57.7,60.9,56.6,52.6,84,66,37,30.07,30.07,6,1,10,0.00
2013-10-3,86.0,71.2,59.0,64.1,58.2,53.5,83,66,40,30.07,30.07,10,1,11,0.00
2013-10-4,87.3,72.7,61.5,63.8,59.8,55.5,82,66,41,30.07,30.07,8,1,10,0.00
2013-10-5,89.6,74.2,61.3,65.8,60.7,55.8,83,65,39,30.07,30.07,6,1,10,0.00
2013-10-6,84.2,72.9,63.0,68.0,63.0,57.1,85,72,52,30.07,30.07,10,3,17,0.00
2013-10-7,88.7,71.4,65.7,67.6,64.2,56.2,84,78,40,30.07,30.07,11,3,17,0.34
2013-10-8,65.7,61.4,58.1,56.4,48.8,44.4,72,63,58,30.07,30.07,8,2,17,0.00
2013-10-9,62.1,58.5,54.5,51.8,49.2,46.5,83,71,65,30.07,30.07,11,4,22,0.19
2013-10-10,61.2,57.2,53.8,55.1,51.3,48.1,83,81,78,30.07,30.07,11,4,18,0.01
2013-10-11,66.0,61.8,58.8,57.9,55.7,54.2,85,80,74,30.07,30.07,7,2,11,0.01
2013-10-12,68.7,64.5,61.3,60.2,57.8,55.3,82,79,72,30.07,30.07,6,2,11,0.00
2013-10-13,67.8,64.3,62.2,60.0,57.9,56.7,83,80,75,30.07,30.07,9,3,14,0.02
2013-10-14,66.4,62.4,57.7,59.3,56.4,52.3,85,81,73,30.07,30.07,8,2,13,0.11
2013-10-15,72.1,62.7,54.1,57.1,53.7,49.6,85,73,58,30.07,30.07,7,2,13,0.00
2013-10-16,69.6,65.0,60.8,58.9,56.9,54.9,81,75,65,30.07,30.07,4,1,8,0.00
2013-10-17,76.1,67.6,59.7,60.6,57.9,54.6,84,72,55,30.07,30.07,7,1,12,0.00
2013-10-18,69.1,63.4,57.4,60.0,50.4,43.6,81,63,47,30.07,30.07,8,1,14,0.00
2013-10-19,70.3,63.6,59.9,60.2,55.6,51.7,80,75,69,30.07,30.07,5,1,8,0.01
2013-10-20,67.6,56.5,44.2,54.3,43.4,38.7,83,63,36,30.07,30.07,6,1,12,0.00
2013-10-21,70.2,53.2,38.7,48.2,41.9,34.5,86,68,35,30.07,30.07,6,1,9,0.00
2013-10-22,63.9,57.0,50.7,54.2,50.0,45.4,83,78,69,30.07,30.07,4,0,9,0.00
2013-10-23,68.0,58.5,48.4,54.7,44.2,30.3,85,63,31,30.07,30.07,13,3,22,0.00
2013-10-24,59.2,47.7,36.0,37.0,32.2,28.3,78,57,33,30.07,30.07,13,2,17,0.00
2013-10-25,57.0,46.7,34.0,35.0,29.3,22.2,77,53,28,30.07,30.07,10,2,15,0.00
2013-10-26,60.1,43.7,28.2,35.8,28.9,22.3,83,60,30,30.07,30.07,10,1,14,0.00
2013-10-27,69.3,54.3,41.4,44.5,38.0,33.9,79,57,32,30.07,30.07,8,1,11,0.00
2013-10-28,70.7,55.5,43.0,52.2,45.7,37.6,83,71,47,30.07,30.07,4,0,6,0.00
2013-10-29,74.5,60.5,50.4,55.1,50.1,44.1,84,70,46,30.07,30.07,5,0,8,0.00
2013-10-30,73.4,61.2,52.3,56.0,51.8,46.7,84,72,50,30.07,30.07,7,1,11,0.00
2013-10-31,73.8,65.4,55.2,59.2,53.4,49.5,83,66,49,30.07,30.07,11,3,17,0.00
2013-11-1,74.1,68.7,62.8,61.9,60.2,55.8,84,74,63,30.07,30.07,12,4,20,1.20
2013-11-2,71.8,62.5,51.8,55.8,48.0,38.2,84,62,31,30.07,30.07,12,2,17,0.01
2013-11-3,64.2,51.8,42.1,42.2,36.6,32.3,79,58,31,30.07,30.07,9,2,16,0.00
2013-11-4,56.7,46.1,37.6,36.9,31.3,27.8,77,58,34,30.07,30.07,8,1,12,0.00
2013-11-5,58.3,48.8,38.7,45.3,38.9,29.7,75,69,57,30.07,30.07,9,1,13,0.00
2013-11-6,71.8,57.6,45.3,52.6,47.4,40.2,83,70,48,30.07,30.07,8,1,11,0.00
2013-11-7,69.6,60.2,46.6,59.1,49.7,30.6,85,69,47,30.07,30.07,9,2,16,0.11
2013-11-8,58.1,45.9,33.3,31.5,26.5,18.9,78,50,23,30.07,30.07,10,2,18,0.00
2013-11-9,59.2,44.7,29.8,36.7,29.6,23.6,81,59,26,30.07,30.07,11,1,12,0.00
2013-11-10,72.9,56.0,41.4,39.0,32.0,22.6,73,44,18,30.07,30.07,12,2,21,0.00
2013-11-11,61.9,43.6,33.3,44.1,28.7,23.2,76,57,29,30.07,30.07,8,1,10,1.32
2013-11-12,61.7,43.1,35.2,37.4,29.6,12.7,80,61,32,30.07,30.07,13,3,25,0.01
2013-11-13,46.0,35.0,26.1,19.2,13.9,7.4,70,44,21,30.07,30.07,10,3,17,0.00
2013-11-14,58.6,38.7,23.2,26.5,19.3,12.5,78,51,19,30.07,30.07,10,1,14,0.00
2013-11-15,61.3,45.7,27.7,43.2,32.7,19.5,80,62,37,30.07,30.07,4,0,7,0.00
2013-11-16,70.3,56.9,49.1,55.2,49.1,43.2,83,76,57,30.07,30.07,6,1,8,0.00
2013-11-17,71.2,61.7,53.1,62.5,54.3,48.4,87,77,59,30.07,30.07,10,2,17,0.06
2013-11-18,76.8,67.3,55.2,62.9,49.3,25.7,83,56,27,30.07,30.07,16,4,25,0.02
2013-11-19,57.4,49.5,42.8,28.9,26.1,21.8,56,41,27,30.07,30.07,11,3,19,0.00
2013-11-20,53.1,45.1,37.8,35.9,30.2,25.6,72,56,43,30.07,30.07,8,2,14,0.00
2013-11-21,62.6,50.4,41.9,46.2,39.9,34.2,76,68,54,30.07,30.07,5,1,11,0.00
2013-11-22,71.1,59.1,46.0,56.3,49.8,40.5,83,72,59,30.07,30.07,8,2,14,0.04
2013-11-23,61.7,56.2,43.3,56.0,39.5,11.0,84,57,24,30.07,30.07,8,2,17,0.01
2013-11-24,43.3,33.2,23.9,20.1,4.3,-4.5,55,30,18,30.07,30.07,11,4,24,0.00
2013-11-25,42.8,31.2,18.5,14.6,7.1,-2.5,71,40,18,30.07,30.07,7,1,10,0.00
2013-11-26,67.1,46.4,36.0,61.6,34.5,10.0,88,65,32,30.07,30.07,13,4,21,0.60
2013-11-27,54.7,40.3,30.4,49.0,32.9,13.5,88,76,49,30.07,30.07,16,5,27,0.86
2013-11-28,45.9,32.5,22.6,21.2,15.8,10.1,72,52,26,30.07,30.07,8,2,17,0.00
2013-11-29,52.0,36.6,23.2,28.1,21.2,17.1,81,56,30,30.07,30.07,9,1,14,0.00
2013-11-30,50.9,37.4,28.0,32.4,25.5,18.0,78,63,47,30.07,30.07,7,2,11,0.00
2013-12-1,60.6,42.0,26.8,36.8,28.8,21.0,83,63,28,30.07,30.07,6,1,10,0.00
2013-12-2,60.1,45.7,36.3,42.9,36.2,30.1,84,71,41,30.07,30.07,6,1,10,0.00
2013-12-3,58.1,47.0,32.0,43.6,37.5,27.1,86,70,53,30.07,30.07,7,1,10,0.00
2013-12-4,62.6,56.8,52.5,53.2,48.6,43.3,83,74,68,30.07,30.07,4,1,8,0.00
2013-12-5,68.0,62.1,52.9,60.2,55.9,47.9,87,80,72,30.07,30.07,10,2,21,0.04
2013-12-6,78.6,71.5,66.6,61.0,59.0,57.8,79,65,51,30.07,30.07,15,7,24,0.02
2013-12-7,70.3,49.5,42.4,59.9,40.8,30.0,82,72,61,30.07,30.07,11,4,21,0.22
2013-12-8,42.4,35.6,33.1,30.0,28.2,25.6,82,75,60,30.07,30.07,8,2,14,0.07
2013-12-9,45.7,39.4,34.2,42.3,35.5,29.0,89,86,81,30.07,30.07,5,1,10,0.13
2013-12-10,47.8,43.1,28.2,43.4,37.2,21.2,89,80,52,30.07,30.07,9,2,14,0.58
2013-12-11,49.8,35.3,23.5,29.6,21.4,14.9,83,60,26,30.07,30.07,7,1,12,0.00
2013-12-12,45.0,34.3,25.3,25.4,16.2,4.9,81,51,19,30.07,30.07,11,2,18,0.00
2013-12-13,52.0,35.2,21.7,26.4,17.4,8.1,75,53,20,30.07,30.07,8,1,12,0.00
2013-12-14,46.9,40.7,36.5,38.1,32.4,25.0,86,73,44,30.07,30.07,9,2,14,0.84
2013-12-15,54.9,43.9,34.5,41.5,33.3,22.1,87,68,42,30.07,30.07,13,3,17,0.04
2013-12-16,55.8,40.3,28.4,32.6,27.5,21.4,77,62,36,30.07,30.07,7,1,9,0.00
2013-12-17,61.0,49.1,32.9,36.6,32.2,25.9,79,54,33,30.07,30.07,17,3,27,0.00
2013-12-18,50.2,40.1,28.8,34.9,19.9,10.7,72,47,21,30.07,30.07,12,2,16,0.00
2013-12-19,62.8,44.6,26.6,27.9,21.3,16.3,72,44,18,30.07,30.07,11,2,17,0.00
2013-12-20,66.9,55.7,42.1,50.7,42.6,28.2,77,62,45,30.07,30.07,14,2,21,0.00
2013-12-21,57.6,51.2,47.8,49.3,43.9,42.0,82,76,69,30.07,30.07,4,0,6,0.00
2013-12-22,78.4,71.1,46.4,62.3,59.6,38.2,88,68,51,30.07,30.07,17,6,31,0.24
2013-12-23,68.2,61.1,47.7,63.2,55.4,38.7,85,81,71,30.07,30.07,11,3,20,1.28
2013-12-24,47.8,41.4,29.7,38.7,26.3,9.4,82,56,34,30.07,30.07,14,4,22,0.00
2013-12-25,35.8,32.0,23.9,14.4,4.1,1.2,65,31,23,30.07,30.07,8,2,13,0.00
2013-12-26,52.9,36.8,24.3,29.3,24.2,14.2,78,62,32,30.07,30.07,7,1,11,0.02
2013-12-27,54.5,38.0,25.2,27.7,18.7,12.5,76,51,19,30.07,30.07,5,1,8,0.00
2013-12-28,60.4,41.0,24.3,43.2,23.7,17.4,88,55,20,30.07,30.07,6,1,8,2.63
2013-12-29,64.0,49.6,43.5,59.8,43.6,32.4,86,80,52,30.07,30.07,14,3,23,1.43
2013-12-30,53.8,45.1,35.1,44.2,36.3,31.0,90,73,51,30.07,30.07,7,1,11,0.01
2013-12-31,51.1,41.8,31.5,34.1,26.7,15.6,80,57,25,30.07,30.07,10,2,16,0.00
2014-1-1,51.1,38.8,29.3,30.4,23.3,15.3,81,58,24,30.07,30.07,8,1,11,0.00
2014-1-2,48.9,42.8,36.5,42.0,35.4,27.8,85,75,60,30.07,30.07,14,1,18,0.31